Time,TemperatureF,DewpointF,PressureIn,WindDirection,WindDirectionDegrees,WindSpeedMPH,WindSpeedGustMPH,Humidity,HourlyPrecipIn,Conditions,Clouds,dailyrainin,SoftwareType,DateUTC
2018-01-21 00:07:00,45.2,35.0,30.22,WSW,257,2.0,4.0,68,0.00,,,0.00,weatherlink.com 1.10,2018-01-21 05:07:00,
2018-01-21 00:22:00,45.2,36.0,30.23,West,278,1.0,6.0,69,0.00,,,0.00,weatherlink.com 1.10,2018-01-21 05:22:00,
2018-01-21 00:37:00,45.1,35.0,30.23,West,259,2.0,4.0,69,0.00,,,0.00,weatherlink.com 1.10,2018-01-21 05:37:00,
2018-01-21 00:52:00,45.2,35.0,30.23,West,266,3.0,5.0,68,0.00,,,0.00,weatherlink.com 1.10,2018-01-21 05:52:00,
2018-01-21 01:22:00,44.3,35.0,30.22,West,278,0.0,3.0,69,0.00,,,0.00,weatherlink.com 1.10,2018-01-21 06:22:00,
2018-01-21 01:37:00,44.1,34.0,30.21,West,277,1.0,2.0,69,0.00,,,0.00,weatherlink.com 1.10,2018-01-21 06:37:00,
2018-01-21 01:52:00,44.3,34.0,30.22,WSW,255,2.0,5.0,68,0.00,,,0.00,weatherlink.com 1.10,2018-01-21 06:52:00,
2018-01-21 02:07:00,44.9,34.0,30.22,West,266,2.0,7.0,66,0.00,,,0.00,weatherlink.com 1.10,2018-01-21 07:07:00,
2018-01-21 02:22:00,44.9,34.0,30.21,West,265,1.0,5.0,65,0.00,,,0.00,weatherlink.com 1.10,2018-01-21 07:22:00,
2018-01-21 02:37:00,44.8,34.0,30.21,West,281,1.0,3.0,65,0.00,,,0.00,weatherlink.com 1.10,2018-01-21 07:37:00,
2018-01-21 03:08:00,45.0,33.0,30.21,West,281,1.0,5.0,63,0.00,,,0.00,weatherlink.com 1.10,2018-01-21 08:08:00,
2018-01-21 03:23:00,45.2,33.0,30.22,West,269,1.0,4.0,62,0.00,,,0.00,weatherlink.com 1.10,2018-01-21 08:23:00,
2018-01-21 03:38:00,44.8,33.0,30.21,WSW,248,3.0,3.0,63,0.00,,,0.00,weatherlink.com 1.10,2018-01-21 08:38:00,
2018-01-21 03:53:00,44.6,33.0,30.21,WSW,257,2.0,4.0,63,0.00,,,0.00,weatherlink.com 1.10,2018-01-21 08:53:00,
2018-01-21 04:08:00,44.5,33.0,30.21,WSW,257,1.0,4.0,64,0.00,,,0.00,weatherlink.com 1.10,2018-01-21 09:08:00,
2018-01-21 04:23:00,44.1,33.0,30.21,West,266,2.0,5.0,65,0.00,,,0.00,weatherlink.com 1.10,2018-01-21 09:23:00,
2018-01-21 04:38:00,43.5,33.0,30.22,West,271,0.0,4.0,67,0.00,,,0.00,weatherlink.com 1.10,2018-01-21 09:38:00,
2018-01-21 04:53:00,43.4,33.0,30.22,WSW,245,4.0,4.0,67,0.00,,,0.00,weatherlink.com 1.10,2018-01-21 09:53:00,
2018-01-21 05:08:00,43.7,33.0,30.22,West,270,0.0,4.0,66,0.00,,,0.00,weatherlink.com 1.10,2018-01-21 10:08:00,
2018-01-21 05:23:00,43.2,33.0,30.22,WSW,255,2.0,3.0,67,0.00,,,0.00,weatherlink.com 1.10,2018-01-21 10:23:00,
2018-01-21 05:38:00,42.8,33.0,30.23,WSW,239,2.0,3.0,68,0.00,,,0.00,weatherlink.com 1.10,2018-01-21 10:38:00,
2018-01-21 05:53:00,42.8,33.0,30.23,West,263,1.0,4.0,68,0.00,,,0.00,weatherlink.com 1.10,2018-01-21 10:53:00,
2018-01-21 06:08:00,43.7,33.0,30.23,West,277,2.0,3.0,66,0.00,,,0.00,weatherlink.com 1.10,2018-01-21 11:08:00,
2018-01-21 06:23:00,44.3,34.0,30.23,WSW,257,2.0,5.0,67,0.00,,,0.00,weatherlink.com 1.10,2018-01-21 11:23:00,
2018-01-21 06:38:00,44.4,34.0,30.24,WSW,256,1.0,5.0,68,0.00,,,0.00,weatherlink.com 1.10,2018-01-21 11:38:00,
2018-01-21 06:53:00,44.6,35.0,30.25,West,267,3.0,6.0,68,0.00,,,0.00,weatherlink.com 1.10,2018-01-21 11:53:00,
2018-01-21 07:08:00,44.1,34.0,30.25,WNW,286,3.0,5.0,69,0.00,,,0.00,weatherlink.com 1.10,2018-01-21 12:08:00,
2018-01-21 07:23:00,43.5,34.0,30.24,WNW,294,3.0,5.0,70,0.00,,,0.00,weatherlink.com 1.10,2018-01-21 12:23:00,
2018-01-21 07:38:00,43.2,34.0,30.25,NW,308,2.0,4.0,70,0.00,,,0.00,weatherlink.com 1.10,2018-01-21 12:38:00,
2018-01-21 07:53:00,43.6,34.0,30.26,West,272,1.0,4.0,70,0.00,,,0.00,weatherlink.com 1.10,2018-01-21 12:53:00,
2018-01-21 08:08:00,43.7,34.0,30.26,WNW,284,1.0,3.0,70,0.00,,,0.00,weatherlink.com 1.10,2018-01-21 13:08:00,
2018-01-21 08:23:00,43.9,35.0,30.26,WNW,283,1.0,4.0,70,0.00,,,0.00,weatherlink.com 1.10,2018-01-21 13:23:00,
2018-01-21 08:38:00,44.1,35.0,30.27,WSW,240,1.0,3.0,70,0.00,,,0.00,weatherlink.com 1.10,2018-01-21 13:38:00,
2018-01-21 08:53:00,45.2,36.0,30.27,West,278,3.0,4.0,69,0.00,,,0.00,weatherlink.com 1.10,2018-01-21 13:53:00,
2018-01-21 09:09:00,46.7,37.0,30.27,WNW,298,2.0,6.0,68,0.00,,,0.00,weatherlink.com 1.10,2018-01-21 14:09:00,
2018-01-21 09:23:00,47.6,37.0,30.27,West,264,1.0,5.0,66,0.00,,,0.00,weatherlink.com 1.10,2018-01-21 14:23:00,
2018-01-21 09:38:00,49.1,38.0,30.28,NW,326,1.0,6.0,66,0.00,,,0.00,weatherlink.com 1.10,2018-01-21 14:38:00,
2018-01-21 09:53:00,50.8,39.0,30.28,WNW,299,2.0,6.0,65,0.00,,,0.00,weatherlink.com 1.10,2018-01-21 14:53:00,
2018-01-21 10:08:00,51.2,40.0,30.28,North,358,2.0,5.0,65,0.00,,,0.00,weatherlink.com 1.10,2018-01-21 15:08:00,
2018-01-21 10:23:00,51.7,40.0,30.27,WNW,283,3.0,5.0,65,0.00,,,0.00,weatherlink.com 1.10,2018-01-21 15:23:00,
2018-01-21 10:38:00,52.6,42.0,30.28,NNW,331,2.0,4.0,67,0.00,,,0.00,weatherlink.com 1.10,2018-01-21 15:38:00,
2018-01-21 10:53:00,53.8,43.0,30.27,NW,313,2.0,4.0,66,0.00,,,0.00,weatherlink.com 1.10,2018-01-21 15:53:00,
2018-01-21 11:09:00,55.9,44.0,30.26,NE,39,2.0,5.0,64,0.00,,,0.00,weatherlink.com 1.10,2018-01-21 16:09:00,
2018-01-21 11:24:00,57.1,44.0,30.26,ENE,60,2.0,4.0,63,0.00,,,0.00,weatherlink.com 1.10,2018-01-21 16:24:00,
2018-01-21 11:39:00,50.8,42.0,30.26,WSW,253,3.0,6.0,73,0.00,,,0.00,weatherlink.com 1.10,2018-01-21 16:39:00,
2018-01-21 11:54:00,49.0,42.0,30.26,SSW,193,2.0,7.0,77,0.00,,,0.00,weatherlink.com 1.10,2018-01-21 16:54:00,
2018-01-21 12:09:00,48.3,42.0,30.25,SW,216,2.0,5.0,79,0.00,,,0.00,weatherlink.com 1.10,2018-01-21 17:09:00,
2018-01-21 12:24:00,48.9,42.0,30.25,SW,226,3.0,4.0,78,0.00,,,0.00,weatherlink.com 1.10,2018-01-21 17:24:00,
2018-01-21 12:39:00,48.5,43.0,30.24,SW,224,3.0,4.0,80,0.00,,,0.00,weatherlink.com 1.10,2018-01-21 17:39:00,
2018-01-21 12:55:00,49.2,43.0,30.23,SSW,200,2.0,3.0,79,0.00,,,0.00,weatherlink.com 1.10,2018-01-21 17:55:00,
2018-01-21 13:09:00,48.8,43.0,30.23,SW,214,4.0,6.0,81,0.00,,,0.00,weatherlink.com 1.10,2018-01-21 18:09:00,
2018-01-21 13:24:00,48.8,44.0,30.23,WSW,241,6.0,7.0,82,0.00,,,0.00,weatherlink.com 1.10,2018-01-21 18:24:00,
2018-01-21 13:39:00,48.6,44.0,30.22,SW,230,5.0,8.0,84,0.00,,,0.00,weatherlink.com 1.10,2018-01-21 18:39:00,
2018-01-21 13:54:00,48.9,44.0,30.22,SW,214,2.0,8.0,84,0.00,,,0.00,weatherlink.com 1.10,2018-01-21 18:54:00,
2018-01-21 14:09:00,49.0,44.0,30.22,SW,224,4.0,6.0,83,0.00,,,0.00,weatherlink.com 1.10,2018-01-21 19:09:00,
2018-01-21 14:24:00,49.2,44.0,30.22,SW,217,3.0,-999.0,82,-99.99,,,0.00,weatherlink.com 1.10,2018-01-21 19:24:00,
2018-01-21 14:39:00,50.6,45.0,30.22,SW,214,4.0,6.0,80,0.00,,,0.00,weatherlink.com 1.10,2018-01-21 19:39:00,
2018-01-21 14:54:00,49.5,45.0,30.22,SW,229,8.0,8.0,83,0.00,,,0.00,weatherlink.com 1.10,2018-01-21 19:54:00,
2018-01-21 15:09:00,49.4,45.0,30.22,SE,143,8.0,10.0,85,0.00,,,0.00,weatherlink.com 1.10,2018-01-21 20:09:00,
2018-01-21 15:24:00,49.7,45.0,30.22,SW,218,4.0,9.0,83,0.00,,,0.00,weatherlink.com 1.10,2018-01-21 20:24:00,
2018-01-21 15:39:00,49.6,45.0,30.22,SW,219,3.0,8.0,85,0.00,,,0.00,weatherlink.com 1.10,2018-01-21 20:39:00,
2018-01-21 15:54:00,50.5,46.0,30.23,South,181,5.0,8.0,83,0.00,,,0.00,weatherlink.com 1.10,2018-01-21 20:54:00,
2018-01-21 16:09:00,51.1,46.0,30.23,SSW,207,5.0,8.0,84,0.00,,,0.00,weatherlink.com 1.10,2018-01-21 21:09:00,
2018-01-21 16:24:00,50.9,46.0,30.23,SSW,213,4.0,7.0,82,0.00,,,0.00,weatherlink.com 1.10,2018-01-21 21:24:00,